createdAt,value
2024-01-27T00:01:49.340Z,100750.19
2024-01-27T00:04:18.131Z,100761.28
2024-01-27T00:06:47.137Z,100758.19
2024-01-27T00:09:17.535Z,100761.97
2024-01-27T00:11:46.584Z,100776.25
2024-01-27T00:14:15.591Z,100768.84
2024-01-27T00:16:44.587Z,100768.84
2024-01-27T00:19:13.678Z,100776.59
2024-01-27T00:21:42.668Z,100776.34
2024-01-27T00:24:11.627Z,100780.09
2024-01-27T00:26:41.842Z,100780.50
2024-01-27T00:29:10.674Z,100780.69
2024-01-27T00:31:39.597Z,100789.63
2024-01-27T00:34:08.527Z,100786.84
2024-01-27T00:36:38.099Z,100788.72
2024-01-27T00:39:07.208Z,100784.94
2024-01-27T00:41:36.168Z,100790.13
2024-01-27T00:44:06.696Z,100798.81
2024-01-27T00:46:35.637Z,100786.84
2024-01-27T00:49:04.561Z,100788.84
2024-01-27T00:51:33.451Z,100793.09
2024-01-27T00:54:02.482Z,100802.28
2024-01-27T00:56:31.338Z,100792.53
2024-01-27T00:59:00.200Z,100796.34
2024-01-27T01:01:30.491Z,100808.66
2024-01-27T01:03:59.451Z,100801.25
2024-01-27T01:06:28.280Z,100810.03
2024-01-27T01:08:57.306Z,100805.00
2024-01-27T01:11:26.306Z,100806.41
2024-01-27T01:13:55.181Z,100809.56
2024-01-27T01:16:24.021Z,100810.66
2024-01-27T01:18:54.252Z,100817.69
2024-01-27T01:21:23.136Z,100830.63
2024-01-27T01:23:51.997Z,100828.03
2024-01-27T01:26:20.765Z,100834.50
2024-01-27T01:28:49.589Z,100830.63
2024-01-27T01:31:18.446Z,100830.84
2024-01-27T01:33:47.368Z,100834.03
2024-01-27T01:36:17.631Z,100830.59
2024-01-27T01:38:47.137Z,100825.78
2024-01-27T01:41:16.068Z,100830.34
2024-01-27T01:43:44.902Z,100828.47
2024-01-27T01:46:13.673Z,100823.75
2024-01-27T01:48:42.781Z,100826.53
2024-01-27T01:51:11.737Z,100823.16
2024-01-27T01:53:41.995Z,100821.59
2024-01-27T01:56:10.785Z,100824.44
2024-01-27T01:58:39.523Z,100833.34
2024-01-27T02:01:08.451Z,100836.25
2024-01-27T02:03:37.297Z,100831.22
2024-01-27T02:06:06.306Z,100845.28
2024-01-27T02:08:35.025Z,100851.47
2024-01-27T02:11:05.282Z,100855.00
2024-01-27T02:13:34.582Z,100851.53
2024-01-27T02:16:03.364Z,100864.00
2024-01-27T02:18:32.240Z,100861.53
2024-01-27T02:21:01.163Z,100870.13
2024-01-27T02:23:30.161Z,100877.88
2024-01-27T02:26:01.343Z,100872.69
2024-01-27T02:28:33.184Z,100883.34
2024-01-27T02:31:01.956Z,100886.47
2024-01-27T02:33:30.877Z,100886.47
2024-01-27T02:35:59.736Z,100887.81
2024-01-27T02:38:28.485Z,100881.75
2024-01-27T02:40:57.140Z,100898.94
2024-01-27T02:43:27.301Z,100897.94
2024-01-27T02:45:56.585Z,100909.63
2024-01-27T02:48:25.404Z,100905.09
2024-01-27T02:50:54.236Z,100908.94
2024-01-27T02:53:22.965Z,100913.19
2024-01-27T02:55:51.635Z,100914.88
2024-01-27T02:58:20.321Z,100916.53
2024-01-27T03:00:50.774Z,100917.47
2024-01-27T03:03:19.604Z,100925.19
2024-01-27T03:05:48.532Z,100920.03
2024-01-27T03:08:17.241Z,100920.84
2024-01-27T03:10:45.982Z,100921.59
2024-01-27T03:13:14.741Z,100918.09
2024-01-27T03:15:44.266Z,100915.34
2024-01-27T03:18:14.699Z,100920.59
2024-01-27T03:20:43.472Z,100921.09
2024-01-27T03:23:12.292Z,100925.66
2024-01-27T03:25:41.018Z,100922.13
2024-01-27T03:28:09.770Z,100928.50
2024-01-27T03:30:38.558Z,100925.00
2024-01-27T03:33:11.815Z,100929.75
2024-01-27T03:35:42.221Z,100925.22
2024-01-27T03:38:10.937Z,100926.34
2024-01-27T03:40:39.668Z,100926.66
2024-01-27T03:43:08.354Z,100937.91
2024-01-27T03:45:37.198Z,100944.63
2024-01-27T03:48:07.073Z,100948.31
2024-01-27T03:50:35.883Z,100955.13
2024-01-27T03:53:06.106Z,100953.47
2024-01-27T03:55:35.503Z,100955.63
2024-01-27T03:58:04.320Z,100959.66
2024-01-27T04:00:34.660Z,100957.28
2024-01-27T04:03:03.831Z,100954.19
2024-01-27T04:05:32.997Z,100958.94
2024-01-27T04:08:01.656Z,100959.56
2024-01-27T04:10:31.768Z,100956.97
2024-01-27T04:13:00.547Z,100954.50
2024-01-27T04:15:29.722Z,100951.00
2024-01-27T04:17:58.848Z,100952.44
2024-01-27T04:20:27.637Z,100952.56
2024-01-27T04:22:56.347Z,100957.19
2024-01-27T04:25:25.084Z,100962.97
2024-01-27T04:27:55.204Z,100962.34
2024-01-27T04:30:24.026Z,100954.06
2024-01-27T04:32:53.261Z,100961.22
2024-01-27T04:35:22.291Z,100957.59
2024-01-27T04:37:52.318Z,100966.03
2024-01-27T04:40:21.282Z,100975.66
2024-01-27T04:42:50.032Z,100975.13
2024-01-27T04:45:20.257Z,100971.19
2024-01-27T04:47:49.031Z,100970.75
2024-01-27T04:50:17.983Z,100971.06
2024-01-27T04:52:47.447Z,100975.91
2024-01-27T04:55:16.323Z,100975.25
2024-01-27T04:57:45.016Z,100976.88
2024-01-27T05:00:15.347Z,100973.16
2024-01-27T05:02:45.488Z,100985.66
2024-01-27T05:05:14.583Z,100979.03
2024-01-27T05:07:43.270Z,100991.72
2024-01-27T05:10:12.881Z,100981.00
2024-01-27T05:12:41.682Z,100980.19
2024-01-27T05:15:12.569Z,100976.69
2024-01-27T05:17:41.367Z,100980.75
2024-01-27T05:20:12.378Z,100981.75
2024-01-27T05:22:41.121Z,100982.66
2024-01-27T05:25:10.933Z,100982.56
2024-01-27T05:27:39.779Z,100986.56
2024-01-27T05:30:09.987Z,100984.53
2024-01-27T05:32:39.194Z,100973.13
2024-01-27T05:35:09.121Z,100978.94
2024-01-27T05:37:40.144Z,100968.19
2024-01-27T05:40:11.700Z,100977.47
2024-01-27T05:42:41.628Z,100982.38
2024-01-27T05:45:11.529Z,100984.34
2024-01-27T05:47:40.454Z,100988.84
2024-01-27T05:50:10.108Z,100981.91
2024-01-27T05:52:40.155Z,100989.59
2024-01-27T05:55:09.524Z,100988.94
2024-01-27T05:57:38.246Z,100989.69
2024-01-27T06:00:10.638Z,100984.44
2024-01-27T06:02:39.530Z,100994.78
2024-01-27T06:05:10.079Z,100990.63
2024-01-27T06:07:41.065Z,100988.53
2024-01-27T06:10:10.566Z,100987.81
2024-01-27T06:12:40.207Z,100993.50
2024-01-27T06:15:11.364Z,100990.47
2024-01-27T06:17:40.809Z,100998.91
2024-01-27T06:20:10.890Z,100994.91
2024-01-27T06:22:41.197Z,100995.88
2024-01-27T06:25:10.378Z,100988.84
2024-01-27T06:27:39.256Z,100993.22
2024-01-27T06:30:09.445Z,101001.00
2024-01-27T06:32:38.377Z,101005.06
2024-01-27T06:35:07.658Z,101010.19
2024-01-27T06:37:36.409Z,101007.50
2024-01-27T06:40:08.475Z,101010.06
2024-01-27T06:42:37.527Z,101016.41
2024-01-27T06:45:07.247Z,101025.94
2024-01-27T06:47:36.158Z,101014.47
2024-01-27T06:50:05.373Z,101027.16
2024-01-27T06:52:34.144Z,101025.13
2024-01-27T06:55:02.964Z,101021.00
2024-01-27T06:57:33.099Z,101025.53
2024-01-27T07:00:01.896Z,101027.28
2024-01-27T07:02:30.937Z,101023.03
2024-01-27T07:05:00.404Z,101027.56
2024-01-27T07:07:30.363Z,101029.19
2024-01-27T07:09:59.777Z,101031.13
2024-01-27T07:12:28.599Z,101033.03
2024-01-27T07:15:00.985Z,101032.53
2024-01-27T07:17:30.183Z,101033.44
2024-01-27T07:19:59.004Z,101036.47
2024-01-27T07:22:27.798Z,101045.63
2024-01-27T07:24:57.808Z,101048.09
2024-01-27T07:27:26.565Z,101046.81
2024-01-27T07:29:55.417Z,101042.84
2024-01-27T07:32:27.267Z,101038.75
2024-01-27T07:34:56.156Z,101040.84
2024-01-27T07:37:24.966Z,101042.41
2024-01-27T07:39:53.707Z,101042.53
2024-01-27T07:42:22.445Z,101034.63
2024-01-27T07:44:51.601Z,101029.47
2024-01-27T07:47:20.357Z,101022.75
2024-01-27T07:49:51.108Z,101031.59
2024-01-27T07:52:19.868Z,101028.47
2024-01-27T07:54:48.626Z,101029.94
2024-01-27T07:57:17.497Z,101041.13
2024-01-27T07:59:46.515Z,101038.03
2024-01-27T08:02:15.250Z,101039.84
2024-01-27T08:04:44.066Z,101047.13
2024-01-27T08:07:16.076Z,101046.47
2024-01-27T08:09:45.004Z,101029.84
2024-01-27T08:12:13.900Z,101033.22
2024-01-27T08:14:42.721Z,101037.66
2024-01-27T08:17:11.481Z,101040.13
2024-01-27T08:19:40.400Z,101041.53
2024-01-27T08:22:10.415Z,101043.81
2024-01-27T08:24:40.669Z,101037.47
2024-01-27T08:27:09.481Z,101041.88
2024-01-27T08:29:38.209Z,101038.94
2024-01-27T08:32:07.844Z,101031.03
2024-01-27T08:34:36.708Z,101035.63
2024-01-27T08:37:16.651Z,101034.25
2024-01-27T08:39:46.828Z,101045.91
2024-01-27T08:42:16.241Z,101040.13
2024-01-27T08:44:45.051Z,101038.13
2024-01-27T08:47:13.787Z,101032.69
2024-01-27T08:49:42.807Z,101035.13
2024-01-27T08:52:12.128Z,101031.81
2024-01-27T08:54:42.266Z,101020.72
2024-01-27T08:57:12.453Z,101023.03
2024-01-27T08:59:41.226Z,101004.50
2024-01-27T09:02:09.993Z,101010.09
2024-01-27T09:04:39.079Z,101008.47
2024-01-27T09:07:07.901Z,101010.66
2024-01-27T09:09:36.768Z,101010.47
2024-01-27T09:12:05.879Z,101019.63
2024-01-27T09:14:36.105Z,101020.84
2024-01-27T09:17:05.319Z,101023.53
2024-01-27T09:19:34.211Z,101025.28
2024-01-27T09:22:03.092Z,101023.97
2024-01-27T09:24:31.918Z,101029.16
2024-01-27T09:27:00.882Z,101028.16
2024-01-27T09:29:29.980Z,101020.53
2024-01-27T09:32:00.450Z,101015.47
2024-01-27T09:34:29.638Z,101011.75
2024-01-27T09:36:58.753Z,101013.09
2024-01-27T09:39:27.537Z,101024.66
2024-01-27T09:41:56.807Z,101020.41
2024-01-27T09:44:26.756Z,101035.19
2024-01-27T09:46:56.035Z,101033.09
2024-01-27T09:49:27.357Z,101044.03
2024-01-27T09:51:57.932Z,101037.75
2024-01-27T09:54:26.835Z,101043.72
2024-01-27T09:56:56.744Z,101042.59
2024-01-27T09:59:26.235Z,101046.28
2024-01-27T10:01:55.075Z,101040.50
2024-01-27T10:04:26.404Z,101040.16
2024-01-27T10:06:55.252Z,101051.06
2024-01-27T10:09:24.238Z,101053.91
2024-01-27T10:11:53.737Z,101056.19
2024-01-27T10:14:22.577Z,101052.72
2024-01-27T10:16:51.278Z,101063.91
2024-01-27T10:19:22.296Z,101062.53
2024-01-27T10:22:02.321Z,101062.78
2024-01-27T10:24:31.236Z,101057.59
2024-01-27T10:27:02.215Z,101063.56
2024-01-27T10:29:31.116Z,101063.59
2024-01-27T10:32:09.480Z,101063.19
2024-01-27T10:34:38.351Z,101056.97
2024-01-27T10:37:08.527Z,101046.28
2024-01-27T10:39:37.362Z,101051.56
2024-01-27T10:42:07.286Z,101052.50
2024-01-27T10:44:36.327Z,101048.16
2024-01-27T10:47:06.998Z,101049.78
2024-01-27T10:49:36.747Z,101036.75
2024-01-27T10:52:12.287Z,101035.16
2024-01-27T10:54:42.747Z,101027.28
2024-01-27T10:57:12.200Z,101017.75
2024-01-27T10:59:42.189Z,101015.03
2024-01-27T11:02:15.354Z,101005.41
2024-01-27T11:04:44.643Z,100996.22
2024-01-27T11:07:14.932Z,100996.41
2024-01-27T11:09:44.392Z,100995.47
2024-01-27T11:12:13.836Z,100983.19
2024-01-27T11:14:43.479Z,100982.47
2024-01-27T11:17:12.351Z,100977.03
2024-01-27T11:19:42.298Z,100983.38
2024-01-27T11:22:28.041Z,100977.91
2024-01-27T11:25:09.915Z,100978.03
2024-01-27T11:27:38.855Z,100965.84
2024-01-27T11:30:09.360Z,100969.28
2024-01-27T11:32:38.716Z,100967.28
2024-01-27T11:35:07.906Z,100961.38
2024-01-27T11:37:40.044Z,100964.22
2024-01-27T11:40:11.369Z,100960.97
2024-01-27T11:42:40.558Z,100959.66
2024-01-27T11:45:10.301Z,100962.13
2024-01-27T11:47:39.309Z,100957.13
2024-01-27T11:50:09.683Z,100948.41
2024-01-27T11:52:39.972Z,100945.56
2024-01-27T11:55:09.630Z,100958.72
2024-01-27T11:57:38.737Z,100953.91
2024-01-27T12:00:10.489Z,100948.94
2024-01-27T12:02:40.004Z,100931.28
2024-01-27T12:05:10.023Z,100933.72
2024-01-27T12:07:41.244Z,100936.06
2024-01-27T12:10:11.125Z,100946.06
2024-01-27T12:12:40.387Z,100938.13
2024-01-27T12:15:10.006Z,100943.41
2024-01-27T12:17:39.358Z,100938.91
2024-01-27T12:20:17.932Z,100936.81
2024-01-27T12:22:48.596Z,100929.81
2024-01-27T12:25:18.213Z,100930.50
2024-01-27T12:27:47.401Z,100924.88
2024-01-27T12:30:16.746Z,100919.94
2024-01-27T12:32:45.709Z,100911.53
2024-01-27T12:35:15.216Z,100904.34
2024-01-27T12:37:45.690Z,100907.63
2024-01-27T12:40:24.281Z,100900.06
2024-01-27T12:42:53.707Z,100898.06
2024-01-27T12:45:22.577Z,100885.41
2024-01-27T12:47:52.016Z,100891.38
2024-01-27T12:50:21.260Z,100887.53
2024-01-27T12:52:50.270Z,100883.72
2024-01-27T12:55:19.323Z,100888.13
2024-01-27T12:57:50.112Z,100884.09
2024-01-27T13:00:20.456Z,100881.47
2024-01-27T13:02:49.291Z,100872.56
2024-01-27T13:05:18.390Z,100879.03
2024-01-27T13:07:47.225Z,100874.34
2024-01-27T13:10:16.190Z,100875.91
2024-01-27T13:12:46.288Z,100879.25
2024-01-27T13:15:16.630Z,100870.84
2024-01-27T13:17:45.600Z,100864.00
2024-01-27T13:20:19.722Z,100869.63
2024-01-27T13:22:50.043Z,100866.50
2024-01-27T13:25:18.882Z,100860.41
2024-01-27T13:27:48.073Z,100862.88
2024-01-27T13:30:18.841Z,100864.13
2024-01-27T13:32:48.160Z,100864.94
2024-01-27T13:35:17.475Z,100871.66
2024-01-27T13:37:47.324Z,100863.53
2024-01-27T13:40:16.296Z,100853.19
2024-01-27T13:42:45.204Z,100859.41
2024-01-27T13:45:14.177Z,100866.13
2024-01-27T13:47:44.726Z,100867.09
2024-01-27T13:50:14.084Z,100851.81
2024-01-27T13:52:44.752Z,100851.75
2024-01-27T13:55:13.807Z,100855.53
2024-01-27T13:57:43.194Z,100856.34
2024-01-27T14:00:13.739Z,100853.41
2024-01-27T14:02:44.434Z,100853.41
2024-01-27T14:05:13.352Z,100850.47
2024-01-27T14:07:42.291Z,100855.03
2024-01-27T14:10:11.774Z,100847.34
2024-01-27T14:12:40.816Z,100851.91
2024-01-27T14:15:11.036Z,100850.63
2024-01-27T14:17:40.049Z,100836.91
2024-01-27T14:20:12.472Z,100832.31
2024-01-27T14:22:41.589Z,100827.19
2024-01-27T14:25:10.962Z,100828.53
2024-01-27T14:27:39.995Z,100824.97
2024-01-27T14:30:11.907Z,100830.78
2024-01-27T14:32:40.987Z,100830.25
2024-01-27T14:35:11.395Z,100829.38
2024-01-27T14:37:40.638Z,100815.00
2024-01-27T14:40:11.509Z,100820.22
2024-01-27T14:42:42.007Z,100823.28
2024-01-27T14:45:11.918Z,100817.22
2024-01-27T14:47:41.130Z,100810.66
2024-01-27T14:50:12.057Z,100820.28
2024-01-27T14:52:41.190Z,100811.28
2024-01-27T14:55:12.456Z,100806.97
2024-01-27T14:57:42.000Z,100806.31
2024-01-27T15:00:12.972Z,100804.13
2024-01-27T15:02:42.080Z,100803.16
2024-01-27T15:05:12.635Z,100804.72
2024-01-27T15:07:41.782Z,100801.81
2024-01-27T15:10:13.009Z,100802.00
2024-01-27T15:12:42.131Z,100793.84
2024-01-27T15:15:12.038Z,100793.75
2024-01-27T15:17:41.139Z,100800.50
2024-01-27T15:20:13.742Z,100798.91
2024-01-27T15:22:45.037Z,100793.72
2024-01-27T15:25:14.916Z,100796.91
2024-01-27T15:27:44.696Z,100807.31
2024-01-27T15:30:15.862Z,100805.31
2024-01-27T15:32:45.207Z,100809.66
2024-01-27T15:35:16.195Z,100806.94
2024-01-27T15:37:45.225Z,100808.75
2024-01-27T15:40:14.592Z,100815.81
2024-01-27T15:42:43.916Z,100808.75
2024-01-27T15:45:12.879Z,100812.59
2024-01-27T15:47:43.956Z,100808.63
2024-01-27T15:50:15.126Z,100811.00
2024-01-27T15:52:45.725Z,100802.94
2024-01-27T15:55:15.917Z,100802.50
2024-01-27T15:57:44.894Z,100802.00
2024-01-27T16:00:14.922Z,100796.25
2024-01-27T16:02:43.863Z,100795.13
2024-01-27T16:05:12.752Z,100799.97
2024-01-27T16:07:41.776Z,100802.41
2024-01-27T16:10:12.249Z,100797.34
2024-01-27T16:12:41.116Z,100806.94
2024-01-27T16:15:10.830Z,100793.13
2024-01-27T16:17:39.783Z,100808.41
2024-01-27T16:20:09.864Z,100803.19
2024-01-27T16:22:39.046Z,100802.38
2024-01-27T16:25:08.688Z,100798.94
2024-01-27T16:27:39.004Z,100806.72
2024-01-27T16:30:09.149Z,100806.88
2024-01-27T16:32:38.066Z,100805.72
2024-01-27T16:35:08.263Z,100812.03
2024-01-27T16:37:37.372Z,100817.56
2024-01-27T16:40:07.456Z,100820.31
2024-01-27T16:42:37.823Z,100823.56
2024-01-27T16:45:10.655Z,100822.19
2024-01-27T16:47:39.645Z,100827.91
2024-01-27T16:50:09.106Z,100833.59
2024-01-27T16:52:38.362Z,100836.41
2024-01-27T16:55:07.953Z,100835.00
2024-01-27T16:57:36.944Z,100829.66
2024-01-27T17:00:30.010Z,100836.19
2024-01-27T17:02:59.067Z,100843.63
2024-01-27T17:05:28.140Z,100847.41
2024-01-27T17:07:57.108Z,100841.56
2024-01-27T17:10:26.345Z,100840.84
2024-01-27T17:12:55.339Z,100842.16
2024-01-27T17:15:25.782Z,100834.00
2024-01-27T17:17:54.715Z,100845.81
2024-01-27T17:20:24.605Z,100848.41
2024-01-27T17:22:53.436Z,100851.78
2024-01-27T17:25:22.636Z,100858.34
2024-01-27T17:27:51.680Z,100847.06
2024-01-27T17:30:20.556Z,100845.41
2024-01-27T17:32:50.810Z,100852.41
2024-01-27T17:35:19.771Z,100853.97
2024-01-27T17:37:48.573Z,100852.84
2024-01-27T17:40:17.820Z,100850.56
2024-01-27T17:42:47.550Z,100853.25
2024-01-27T17:45:16.799Z,100860.94
2024-01-27T17:47:50.421Z,100861.88
2024-01-27T17:50:21.288Z,100853.09
2024-01-27T17:52:50.682Z,100855.19
2024-01-27T17:55:20.723Z,100860.69
2024-01-27T17:57:49.647Z,100862.72
2024-01-27T18:00:19.658Z,100863.06
2024-01-27T18:02:48.600Z,100856.53
2024-01-27T18:05:17.432Z,100856.91
2024-01-27T18:07:47.585Z,100860.47
2024-01-27T18:10:16.518Z,100861.97
2024-01-27T18:12:47.602Z,100863.31
2024-01-27T18:15:16.783Z,100860.94
2024-01-27T18:17:45.517Z,100869.97
2024-01-27T18:20:14.636Z,100873.75
2024-01-27T18:22:43.597Z,100876.13
2024-01-27T18:25:14.113Z,100868.09
2024-01-27T18:27:44.170Z,100872.00
2024-01-27T18:30:16.129Z,100870.59
2024-01-27T18:32:45.109Z,100869.41
2024-01-27T18:35:14.192Z,100871.28
2024-01-27T18:37:43.186Z,100877.63
2024-01-27T18:40:13.620Z,100885.75
2024-01-27T18:45:40.212Z,100893.06
2024-01-27T18:48:10.057Z,100895.88
2024-01-27T18:50:40.469Z,100892.22
2024-01-27T18:53:11.198Z,100895.19
2024-01-27T18:55:42.122Z,100887.06
2024-01-27T18:58:11.320Z,100900.59
2024-01-27T19:00:40.324Z,100889.50
2024-01-27T19:03:10.546Z,100889.63
2024-01-27T19:05:39.545Z,100884.22
2024-01-27T19:08:08.358Z,100890.59
2024-01-27T19:10:37.169Z,100887.28
2024-01-27T19:13:07.426Z,100888.22
2024-01-27T19:15:36.325Z,100888.69
2024-01-27T19:18:05.301Z,100884.94
2024-01-27T19:20:34.250Z,100885.75
2024-01-27T19:23:04.604Z,100878.13
2024-01-27T19:25:34.265Z,100885.75
2024-01-27T19:28:03.213Z,100880.69
2024-01-27T19:30:33.422Z,100888.56
2024-01-27T19:33:02.644Z,100880.78
2024-01-27T19:35:31.753Z,100894.44
2024-01-27T19:38:01.344Z,100889.72
2024-01-27T19:40:32.391Z,100901.59
2024-01-27T19:43:01.349Z,100894.06
2024-01-27T19:45:30.316Z,100893.47
2024-01-27T19:48:00.595Z,100889.81
2024-01-27T19:50:29.637Z,100881.03
2024-01-27T19:52:58.587Z,100881.63
2024-01-27T19:55:27.411Z,100884.69
2024-01-27T19:57:56.254Z,100877.97
2024-01-27T20:00:30.675Z,100877.63
2024-01-27T20:03:01.456Z,100879.72
2024-01-27T20:05:30.338Z,100884.19
2024-01-27T20:07:59.121Z,100883.13
2024-01-27T20:10:27.942Z,100892.75
2024-01-27T20:12:59.510Z,100887.00
2024-01-27T20:15:28.356Z,100882.78
2024-01-27T20:17:57.247Z,100882.03
2024-01-27T20:20:28.000Z,100884.50
2024-01-27T20:22:56.899Z,100880.81
2024-01-27T20:25:25.769Z,100873.19
2024-01-27T20:27:54.594Z,100864.91
2024-01-27T20:30:23.486Z,100877.69
2024-01-27T20:32:57.320Z,100877.44
2024-01-27T20:35:28.279Z,100876.28
2024-01-27T20:37:57.418Z,100882.72
2024-01-27T20:40:27.765Z,100879.41
2024-01-27T20:42:56.470Z,100884.47
2024-01-27T20:45:26.283Z,100886.28
2024-01-27T20:47:55.217Z,100878.66
2024-01-27T20:50:26.414Z,100880.31
2024-01-27T20:52:57.382Z,100879.88
2024-01-27T20:55:27.824Z,100880.16
2024-01-27T20:57:57.391Z,100872.75
2024-01-27T21:00:26.825Z,100870.75
2024-01-27T21:02:55.738Z,100865.19
2024-01-27T21:05:24.599Z,100863.06
2024-01-27T21:07:53.406Z,100861.47
2024-01-27T21:10:23.750Z,100852.88
2024-01-27T21:12:52.650Z,100854.41
2024-01-27T21:15:21.575Z,100855.59
2024-01-27T21:17:50.809Z,100853.91
2024-01-27T21:20:19.574Z,100852.34
2024-01-27T21:22:48.395Z,100847.59
2024-01-27T21:25:17.380Z,100850.78
2024-01-27T21:27:47.666Z,100845.00
2024-01-27T21:30:16.623Z,100850.16
2024-01-27T21:32:45.856Z,100850.63
2024-01-27T21:35:14.878Z,100840.53
2024-01-27T21:37:43.651Z,100833.41
2024-01-27T21:41:08.757Z,100830.31
2024-01-27T21:43:38.938Z,100840.56
2024-01-27T21:46:09.078Z,100837.38
2024-01-27T21:48:38.772Z,100839.44
2024-01-27T21:51:10.906Z,100833.69
2024-01-27T21:53:41.651Z,100836.16
2024-01-27T21:56:12.140Z,100834.47
2024-01-27T21:58:42.734Z,100834.84
2024-01-27T22:01:12.861Z,100837.22
2024-01-27T22:03:42.278Z,100834.28
2024-01-27T22:06:11.323Z,100838.09
2024-01-27T22:08:40.342Z,100840.91
2024-01-27T22:11:09.223Z,100832.06
2024-01-27T22:13:39.186Z,100834.41
2024-01-27T22:16:09.631Z,100830.81
2024-01-27T22:18:38.560Z,100816.47
2024-01-27T22:21:07.699Z,100817.94
2024-01-27T22:23:36.592Z,100817.69
2024-01-27T22:26:05.713Z,100811.31
2024-01-27T22:28:34.608Z,100803.09
2024-01-27T22:31:04.376Z,100798.34
2024-01-27T22:33:35.131Z,100802.19
2024-01-27T22:36:04.444Z,100796.84
2024-01-27T22:38:33.251Z,100796.00
2024-01-27T22:41:02.262Z,100791.34
2024-01-27T22:43:31.118Z,100792.97
2024-01-27T22:45:59.948Z,100792.94
2024-01-27T22:48:30.374Z,100789.09
2024-01-27T22:51:00.631Z,100794.47
2024-01-27T22:53:29.394Z,100787.47
2024-01-27T22:55:58.282Z,100791.50
2024-01-27T22:58:32.455Z,100785.56
2024-01-27T23:01:01.686Z,100790.03
2024-01-27T23:03:30.906Z,100787.44
2024-01-27T23:06:01.243Z,100786.13
2024-01-27T23:08:30.055Z,100782.41
2024-01-27T23:10:59.293Z,100778.56
2024-01-27T23:13:28.087Z,100778.38
2024-01-27T23:15:56.972Z,100774.06
2024-01-27T23:18:25.898Z,100774.28
2024-01-27T23:20:54.863Z,100770.81
2024-01-27T23:23:25.968Z,100766.69
2024-01-27T23:25:54.767Z,100773.19
2024-01-27T23:28:23.603Z,100761.56
2024-01-27T23:30:52.536Z,100760.31
2024-01-27T23:33:21.907Z,100767.28
2024-01-27T23:35:50.875Z,100763.81
2024-01-27T23:38:21.397Z,100764.22
2024-01-27T23:40:51.608Z,100763.78
2024-01-27T23:43:20.468Z,100754.41
2024-01-27T23:45:50.642Z,100755.25
2024-01-27T23:48:20.004Z,100749.59
2024-01-27T23:50:48.873Z,100749.69
2024-01-27T23:53:21.462Z,100755.97
2024-01-27T23:55:51.632Z,100745.69
2024-01-27T23:58:20.608Z,100749.00
